Flight Track Log - Related Links

Times and Time Zones

All times are in EDT time to prevent confusion due to time zone crossing. See the N272AY flight status page for this flight to view local times or setup timezone preferences in your user account.

Time Position Orientation Groundspeed Altitude Reporting Facility
EDT Latitude Longitude Course Direction KTS MPH feet Rate Location/Type
Sat 03:59:18 PM 39.8555 -75.3010 256° West 186 214 1,600  Level FlightAware ADS-B
Sat 03:59:33 PM 39.8522 -75.3183 256° West 203 234 2,200 2,750 Climbing FlightAware ADS-B
Sat 03:59:42 PM 39.8500 -75.3293 255° West 203 234 2,700 2,880 Climbing FlightAware ADS-B
Sat 03:59:58 PM 39.8460 -75.3493 255° West 228 262 3,400 2,250 Climbing FlightAware ADS-B
Sat 04:00:14 PM 39.8417 -75.3719 256° West 252 290 3,900 2,348 Climbing FlightAware ADS-B
Sat 04:00:21 PM 39.8399 -75.3827 258° West 256 295 4,300 3,500 Climbing FlightAware ADS-B
Sat 04:00:26 PM 39.8390 -75.3899 261° West 257 296 4,600 3,818 Climbing FlightAware ADS-B
Sat 04:00:32 PM 39.8386 -75.3989 267° West 260 299 5,000 3,429 Climbing FlightAware ADS-B
Sat 04:00:40 PM 39.8387 -75.4120 271° West 264 304 5,400 4,174 Climbing FlightAware ADS-B
Sat 04:00:55 PM 39.8393 -75.4364 272° West 261 300 6,600 3,750 Climbing FlightAware ADS-B
Sat 04:01:12 PM 39.8395 -75.4629 271° West 264 304 7,400 1,765 Climbing FlightAware ADS-B
Sat 04:01:29 PM 39.8395 -75.4899 270° West 265 305 7,600 364 Climbing FlightAware ADS-B
Sat 04:01:45 PM 39.8394 -75.5144 270° West 265 305 7,600 194 Level FlightAware ADS-B
Sat 04:02:00 PM 39.8394 -75.5386 270° West 265 305 7,700 1,500 Climbing FlightAware ADS-B
Sat 04:02:17 PM 39.8393 -75.5664 270° West 266 306 8,400 2,813 Climbing FlightAware ADS-B
Sat 04:02:32 PM 39.8392 -75.5908 270° West 271 312 9,200 3,067 Climbing FlightAware ADS-B
Sat 04:03:02 PM 39.8390 -75.6409 270° West 288 331 10,700 2,262 Climbing FlightAware ADS-B
Sat 04:03:33 PM 39.8389 -75.6973 270° West 328 377 11,500 2,419 Climbing FlightAware ADS-B
Sat 04:04:04 PM 39.8384 -75.7603 269° West 338 389 13,200 3,300 Climbing FlightAware ADS-B
Sat 04:04:13 PM 39.8374 -75.7796 266° West 342 394 13,700 3,231 Climbing FlightAware ADS-B
Sat 04:04:17 PM 39.8364 -75.7867 260° West 344 396 13,900 3,333 Climbing FlightAware ADS-B
Sat 04:04:22 PM 39.8342 -75.7962 253° West 345 397 14,200 3,429 Climbing FlightAware ADS-B
Sat 04:04:31 PM 39.8275 -75.8139 244° Southwest 349 402 14,700 3,143 Climbing FlightAware ADS-B
Sat 04:04:43 PM 39.8156 -75.8341 233° Southwest 356 410 15,300 2,791 Climbing FlightAware ADS-B
Sat 04:05:14 PM 39.7822 -75.8863 230° Southwest 367 422 16,700 2,667 Climbing FlightAware ADS-B
Sat 04:05:46 PM 39.7477 -75.9410 231° Southwest 376 433 18,100 2,719 Climbing FlightAware ADS-B
Sat 04:06:18 PM 39.7119 -75.9974 230° Southwest 381 438 19,600 2,625 Climbing FlightAware ADS-B
Sat 04:06:50 PM 39.6759 -76.0541 230° Southwest 387 445 20,900 2,286 Climbing FlightAware ADS-B
Sat 04:07:21 PM 39.6403 -76.1101 230° Southwest 394 453 22,000 2,164 Climbing FlightAware ADS-B
Sat 04:07:51 PM 39.6049 -76.1656 230° Southwest 402 463 23,100 2,066 Climbing FlightAware ADS-B
Sat 04:08:22 PM 39.5679 -76.2236 230° Southwest 408 470 24,100 1,770 Climbing FlightAware ADS-B
Sat 04:08:52 PM 39.5313 -76.2808 230° Southwest 418 481 24,900 1,770 Climbing FlightAware ADS-B
Sat 04:09:23 PM 39.4937 -76.3394 230° Southwest 421 484 25,900 1,935 Climbing FlightAware ADS-B
Sat 04:09:54 PM 39.4544 -76.4008 230° Southwest 424 488 26,900 1,935 Climbing FlightAware ADS-B
Sat 04:10:25 PM 39.4160 -76.4615 231° Southwest 427 491 27,900 1,742 Climbing FlightAware ADS-B
Sat 04:10:56 PM 39.3778 -76.5217 231° Southwest 429 494 28,700 1,574 Climbing FlightAware ADS-B
Sat 04:11:26 PM 39.3391 -76.5826 231° Southwest 433 498 29,500 1,500 Climbing FlightAware ADS-B
Sat 04:11:56 PM 39.3006 -76.6430 231° Southwest 437 503 30,200 1,333 Climbing FlightAware ADS-B
Sat 04:12:29 PM 39.2579 -76.7098 230° Southwest 443 510 30,900 1,219 Climbing FlightAware ADS-B
Sat 04:13:00 PM 39.2173 -76.7732 230° Southwest 447 514 31,500 1,082 Climbing FlightAware ADS-B
Sat 04:13:30 PM 39.1776 -76.8351 230° Southwest 447 514 32,000 476 Climbing FlightAware ADS-B
Sat 04:14:03 PM 39.1343 -76.9025 230° Southwest 448 516 32,000  Level FlightAware ADS-B
Sat 04:14:34 PM 39.0938 -76.9654 230° Southwest 448 516 32,000  Level FlightAware ADS-B
Sat 04:15:01 PM 39.0571 -77.0198 229° Southwest 448 516 32,000  Level FlightAware ADS-B
Sat 04:15:19 PM 39.0312 -77.0524 224° Southwest 451 519 32,000  Level FlightAware ADS-B
Sat 04:15:49 PM 38.9832 -77.1057 221° Southwest 454 522 32,000  Level FlightAware ADS-B
Sat 04:16:19 PM 38.9345 -77.1594 221° Southwest 453 521 32,000  Level FlightAware ADS-B
Sat 04:16:50 PM 38.8861 -77.2125 221° Southwest 452 520 32,000  Level FlightAware ADS-B
Sat 04:17:23 PM 38.8332 -77.2704 220° Southwest 453 521 32,000  Level FlightAware ADS-B
Sat 04:17:57 PM 38.7789 -77.3297 220° Southwest 453 521 32,000  Level FlightAware ADS-B
Sat 04:18:42 PM 38.7077 -77.4073 220° Southwest 452 520 32,000  Level FlightAware ADS-B
Sat 04:19:14 PM 38.6571 -77.4623 220° Southwest 450 518 32,000  Level FlightAware ADS-B
Sat 04:19:51 PM 38.5988 -77.5255 220° Southwest 449 517 32,000  Level FlightAware ADS-B
Sat 04:20:25 PM 38.5436 -77.5853 220° Southwest 450 518 32,000  Level FlightAware ADS-B
Sat 04:21:00 PM 38.4880 -77.6453 220° Southwest 451 519 32,000  Level FlightAware ADS-B
Sat 04:21:33 PM 38.4359 -77.7015 220° Southwest 453 521 32,000  Level FlightAware ADS-B
Sat 04:22:04 PM 38.3867 -77.7545 220° Southwest 455 524 32,000  Level FlightAware ADS-B
Sat 04:22:34 PM 38.3383 -77.8064 220° Southwest 454 522 32,000  Level FlightAware ADS-B
Sat 04:23:04 PM 38.2940 -77.8540 220° Southwest 448 516 32,000  Level FlightAware ADS-B
Sat 04:24:29 PM 38.1680 -77.9890 220° Southwest 432 497 32,000  Level FlightAware ADS-B
Sat 04:25:09 PM 38.1060 -78.0550 220° Southwest 432 497 32,000  Level FlightAware ADS-B
Sat 04:26:09 PM 38.0090 -78.1610 221° Southwest 434 499 32,000  Level FlightAware ADS-B
Sat 04:26:59 PM 37.9490 -78.2460 228° Southwest 423 487 32,000  Level FlightAware ADS-B
Sat 04:27:34 PM 37.8990 -78.3180 229° Southwest 423 487 32,000  Level FlightAware ADS-B
Sat 04:28:19 PM 37.8440 -78.3980 229° Southwest 429 494 32,000  Level FlightAware ADS-B
Sat 04:29:09 PM 37.7770 -78.4940 229° Southwest 32,000  Level FlightAware ADS-B
Sat 04:29:49 PM 37.7260 -78.5670 229° Southwest 423 487 32,000  Level FlightAware ADS-B
Sat 04:30:24 PM 37.6810 -78.6310 228° Southwest 423 487 32,000  Level FlightAware ADS-B
Sat 04:31:14 PM 37.6160 -78.7250 229° Southwest 422 486 32,000  Level FlightAware ADS-B
Sat 04:31:54 PM 37.5630 -78.8000 228° Southwest 422 486 32,000  Level FlightAware ADS-B
Sat 04:32:39 PM 37.5060 -78.8820 229° Southwest 421 484 32,000  Level FlightAware ADS-B
Sat 04:33:19 PM 37.4620 -78.9450 229° Southwest 421 484 32,000  Level FlightAware ADS-B
Sat 04:33:59 PM 37.4190 -79.0080 229° Southwest 421 484 32,000  Level FlightAware ADS-B
Sat 04:34:39 PM 37.3760 -79.0710 229° Southwest 421 484 32,000  Level FlightAware ADS-B
Sat 04:35:19 PM 37.3320 -79.1340 229° Southwest 421 484 32,000  Level FlightAware ADS-B
Sat 04:36:09 PM 37.2780 -79.2120 229° Southwest 421 484 32,000  Level FlightAware ADS-B
Sat 04:36:49 PM 37.2340 -79.2750 229° Southwest 421 484 32,000  Level FlightAware ADS-B
Sat 04:37:29 PM 37.1910 -79.3380 229° Southwest 421 484 32,000  Level FlightAware ADS-B
Sat 04:38:09 PM 37.1470 -79.4010 229° Southwest 421 484 32,000  Level FlightAware ADS-B
Sat 04:38:49 PM 37.1040 -79.4630 229° Southwest 421 484 32,000  Level FlightAware ADS-B
Sat 04:39:29 PM 37.0610 -79.5260 229° Southwest 421 484 32,000  Level FlightAware ADS-B
Sat 04:40:19 PM 37.0060 -79.6040 229° Southwest 421 484 32,000  Level FlightAware ADS-B
Sat 04:40:59 PM 36.9630 -79.6670 230° Southwest 421 484 32,000  Level FlightAware ADS-B
Sat 04:41:39 PM 36.9190 -79.7290 228° Southwest 421 484 32,000 -3,813 Level FlightAware ADS-B
Sat 04:42:35 PM 36.5831 -79.7858 228° Southwest 422 486 25,900 -3,672 Descending Atlanta Center
Sat 04:43:35 PM 36.4939 -79.8603 214° Southwest 427 491 24,900 -1,300 Descending Atlanta Center
Sat 04:44:35 PM 36.3983 -79.9350 212° Southwest 427 491 23,300 -1,450 Descending Atlanta Center
Sat 04:45:35 PM 36.3050 -80.0119 214° Southwest 422 486 22,000 -1,050 Descending Atlanta Center
Sat 04:46:35 PM 36.2117 -80.0911 214° Southwest 417 480 21,200 -1,950 Descending Atlanta Center
Sat 04:47:35 PM 36.1122 -80.1783 215° Southwest 401 461 18,100 -2,150 Descending Atlanta Center
Sat 04:48:35 PM 36.0289 -80.2464 213° Southwest 389 448 16,900 -1,371 Descending Atlanta Center
Sat 04:49:20 PM 35.9642 -80.3111 219° Southwest 366 421 15,700 -1,500 Descending Atlanta Center
Sat 04:49:35 PM 35.9456 -80.3197 201° Southwest 384 442 15,400 -1,400 Descending Atlanta Center
Sat 04:49:50 PM 35.9233 -80.3436 221° Southwest 358 412 15,000 -1,300 Descending Atlanta Center
Sat 04:50:35 PM 35.8744 -80.3844 214° Southwest 373 429 14,100 -1,279 Descending Atlanta Center
Sat 04:50:51 PM 35.8400 -80.4142 215° Southwest 347 399 13,700 -1,100 Descending Atlanta Center
Sat 04:51:35 PM 35.7972 -80.4492 214° Southwest 357 411 13,000 -1,180 Descending Atlanta Center
Sat 04:51:52 PM 35.7667 -80.4761 216° Southwest 295 339 12,500 -1,000 Descending Atlanta Center
Sat 04:52:35 PM 35.7322 -80.5111 220° Southwest 316 364 12,000 -1,082 Descending Atlanta Center
Sat 04:52:53 PM 35.7103 -80.5503 235° Southwest 295 339 11,400 -1,700 Descending Atlanta Center
Sat 04:53:35 PM 35.6825 -80.5925 231° Southwest 295 339 10,300 -2,361 Descending Atlanta Center
Sat 04:53:54 PM 35.6603 -80.6267 231° Southwest 281 323 9,000 -2,900 Descending Atlanta Center
Sat 04:54:35 PM 35.6303 -80.6739 232° Southwest 290 334 7,400 -2,656 Descending Atlanta Center
Sat 04:54:55 PM 35.6144 -80.7050 238° Southwest 269 310 6,300 -1,400 Descending Atlanta Center
Sat 04:55:35 PM 35.5844 -80.7522 232° Southwest 285 328 6,000 -295 Descending Atlanta Center
Sat 04:55:56 PM 35.5686 -80.7811 236° Southwest 271 312 6,000 -100 Level Atlanta Center
Sat 04:56:35 PM 35.5406 -80.8231 231° Southwest 280 322 5,900 -295 Descending Atlanta Center
Sat 04:56:57 PM 35.5203 -80.8517 229° Southwest 257 296 5,700 -800 Descending Atlanta Center
Sat 04:57:35 PM 35.4900 -80.8861 223° Southwest 270 311 5,100 -1,180 Descending Atlanta Center
Sat 04:57:58 PM 35.4675 -80.9047 214° Southwest 244 281 4,500 -1,100 Descending Atlanta Center
Sat 04:58:35 PM 35.4325 -80.9267 207° Southwest 249 287 4,000 -500 Descending Atlanta Center
Sat 04:58:58 PM 35.4119 -80.9375 203° Southwest 207 238 4,000  Level Atlanta Center

Login

Don't have an account? Register now (free) for customized features, flight alerts, and more!